createdAt,value
2018-03-29T00:01:07.035Z,18.17
2018-03-29T00:02:15.860Z,18.27
2018-03-29T00:03:25.015Z,18.36
2018-03-29T00:04:33.843Z,18.46
2018-03-29T00:05:42.670Z,18.55
2018-03-29T00:06:51.548Z,18.36
2018-03-29T00:08:00.372Z,17.98
2018-03-29T00:09:09.198Z,17.69
2018-03-29T00:10:18.022Z,17.79
2018-03-29T00:11:27.131Z,17.69
2018-03-29T00:12:36.007Z,17.6
2018-03-29T00:13:44.838Z,17.6
2018-03-29T00:14:53.945Z,17.6
2018-03-29T00:16:02.768Z,17.6
2018-03-29T00:17:11.596Z,17.03
2018-03-29T00:18:20.851Z,17.5
2018-03-29T00:19:29.678Z,17.6
2018-03-29T00:20:38.504Z,17.31
2018-03-29T00:21:47.332Z,17.69
2018-03-29T00:22:56.157Z,17.5
2018-03-29T00:24:05.134Z,17.22
2018-03-29T00:25:13.962Z,17.79
2018-03-29T00:26:22.788Z,17.79
2018-03-29T00:27:31.896Z,17.41
2018-03-29T00:28:40.718Z,17.6
2018-03-29T00:29:49.643Z,17.5
2018-03-29T00:30:58.480Z,17.6
2018-03-29T00:32:07.307Z,17.03
2018-03-29T00:33:16.134Z,17.22
2018-03-29T00:34:25.235Z,17.5
2018-03-29T00:35:34.107Z,16.46
2018-03-29T00:36:42.934Z,16.36
2018-03-29T00:37:51.758Z,15.99
2018-03-29T00:39:00.584Z,16.17
2018-03-29T00:40:09.407Z,15.99
2018-03-29T00:41:18.285Z,15.7
2018-03-29T00:42:27.385Z,15.8
2018-03-29T00:43:36.210Z,15.52
2018-03-29T00:44:45.038Z,15.89
2018-03-29T00:45:54.141Z,15.61
2018-03-29T00:47:03.265Z,15.7
2018-03-29T00:48:12.089Z,15.8
2018-03-29T00:49:20.916Z,15.8
2018-03-29T00:50:29.743Z,15.89
2018-03-29T00:51:38.570Z,15.61
2018-03-29T00:52:47.393Z,15.7
2018-03-29T00:53:56.219Z,15.23
2018-03-29T00:55:05.047Z,15.33
2018-03-29T00:56:13.871Z,15.33
2018-03-29T00:57:22.702Z,15.33
2018-03-29T00:58:32.080Z,15.33
2018-03-29T00:59:40.905Z,15.33
2018-03-29T01:00:49.729Z,15.04
2018-03-29T01:01:58.561Z,15.04
2018-03-29T01:03:07.661Z,15.14
2018-03-29T01:04:16.486Z,14.66
2018-03-29T01:05:25.311Z,14.66
2018-03-29T01:06:34.136Z,14.85
2018-03-29T01:07:42.962Z,14.95
2018-03-29T01:08:51.786Z,14.76
2018-03-29T01:10:00.612Z,14.76
2018-03-29T01:11:09.716Z,14.76
2018-03-29T01:12:18.819Z,14.66
2018-03-29T01:13:27.920Z,14.09
2018-03-29T01:14:36.746Z,14.47
2018-03-29T01:15:45.580Z,14.09
2018-03-29T01:16:54.401Z,13.9
2018-03-29T01:18:03.230Z,14.09
2018-03-29T01:19:12.055Z,14.09
2018-03-29T01:20:20.877Z,14.47
2018-03-29T01:21:30.004Z,14.28
2018-03-29T01:22:39.102Z,14.38
2018-03-29T01:23:47.928Z,14.28
2018-03-29T01:24:56.754Z,14.38
2018-03-29T01:26:05.583Z,14.38
2018-03-29T01:27:14.556Z,14.38
2018-03-29T01:28:23.385Z,14.38
2018-03-29T01:29:32.205Z,14.38
2018-03-29T01:30:41.031Z,14.47
2018-03-29T01:31:49.856Z,14.19
2018-03-29T01:32:58.931Z,14.19
2018-03-29T01:34:07.756Z,14
2018-03-29T01:35:16.590Z,13.9
2018-03-29T01:36:25.406Z,13.9
2018-03-29T01:37:34.229Z,13.81
2018-03-29T01:38:43.479Z,13.71
2018-03-29T01:39:52.307Z,14
2018-03-29T01:41:01.131Z,13.9
2018-03-29T01:42:09.957Z,14.09
2018-03-29T01:43:18.781Z,13.9
2018-03-29T01:44:27.609Z,13.81
2018-03-29T01:45:36.715Z,13.9
2018-03-29T01:46:45.539Z,13.81
2018-03-29T01:47:54.366Z,14
2018-03-29T01:49:03.194Z,14.09
2018-03-29T01:50:12.071Z,13.71
2018-03-29T01:51:20.894Z,14.19
2018-03-29T01:52:29.721Z,14
2018-03-29T01:53:38.819Z,13.53
2018-03-29T01:54:47.645Z,13.81
2018-03-29T01:55:56.571Z,13.62
2018-03-29T01:57:05.397Z,13.62
2018-03-29T01:58:14.221Z,13.53
2018-03-29T01:59:23.051Z,13.71
2018-03-29T02:00:31.874Z,13.43
2018-03-29T02:01:41.350Z,13.43
2018-03-29T02:02:50.177Z,13.53
2018-03-29T02:03:59.002Z,13.43
2018-03-29T02:05:08.103Z,13.53
2018-03-29T02:06:17.210Z,13.34
2018-03-29T02:07:26.036Z,13.44
2018-03-29T02:08:34.862Z,13.25
2018-03-29T02:09:43.686Z,13.15
2018-03-29T02:10:52.514Z,12.87
2018-03-29T02:12:01.341Z,13.15
2018-03-29T02:13:10.270Z,13.25
2018-03-29T02:14:19.095Z,13.25
2018-03-29T02:15:27.920Z,12.96
2018-03-29T02:16:36.748Z,12.87
2018-03-29T02:17:45.574Z,13.06
2018-03-29T02:18:54.448Z,13.06
2018-03-29T02:20:03.552Z,13.25
2018-03-29T02:21:12.376Z,12.68
2018-03-29T02:22:21.480Z,12.4
2018-03-29T02:23:30.580Z,12.49
2018-03-29T02:24:39.556Z,12.49
2018-03-29T02:25:48.382Z,12.49
2018-03-29T02:26:57.206Z,12.3
2018-03-29T02:28:06.031Z,12.12
2018-03-29T02:29:14.857Z,12.12
2018-03-29T02:30:23.862Z,11.92
2018-03-29T02:31:32.666Z,10.13
2018-03-29T02:32:41.764Z,10.22
2018-03-29T02:33:50.875Z,9.75
2018-03-29T02:34:59.980Z,9.75
2018-03-29T02:36:09.059Z,9.65
2018-03-29T02:37:17.885Z,9.56
2018-03-29T02:38:26.997Z,9.37
2018-03-29T02:39:35.823Z,9.56
2018-03-29T02:40:44.654Z,9.37
2018-03-29T02:41:53.478Z,9.19
2018-03-29T02:43:02.587Z,9.56
2018-03-29T02:44:11.414Z,9.65
2018-03-29T02:45:20.239Z,9.75
2018-03-29T02:46:29.072Z,9.56
2018-03-29T02:47:38.228Z,9.28
2018-03-29T02:48:47.054Z,9.19
2018-03-29T02:49:55.883Z,9.19
2018-03-29T02:51:04.986Z,8.8
2018-03-29T02:52:13.813Z,8.61
2018-03-29T02:53:22.739Z,8.52
2018-03-29T02:54:31.566Z,8.23
2018-03-29T02:55:40.393Z,8.14
2018-03-29T02:56:49.222Z,7.57
2018-03-29T02:57:58.048Z,7.29
2018-03-29T02:59:07.026Z,7.29
2018-03-29T03:00:16.128Z,6.82
2018-03-29T03:01:24.957Z,6.91
2018-03-29T03:02:34.065Z,6.72
2018-03-29T03:03:42.889Z,6.63
2018-03-29T03:04:52.044Z,6.44
2018-03-29T03:06:00.870Z,6.53
2018-03-29T03:07:09.698Z,6.53
2018-03-29T03:08:19.090Z,6.44
2018-03-29T03:09:27.904Z,6.34
2018-03-29T03:10:36.828Z,6.15
2018-03-29T03:11:45.654Z,5.87
2018-03-29T03:12:54.484Z,5.96
2018-03-29T03:14:03.587Z,6.25
2018-03-29T03:15:12.418Z,5.68
2018-03-29T03:16:21.441Z,5.49
2018-03-29T03:17:30.273Z,5.49
2018-03-29T03:18:39.099Z,5.58
2018-03-29T03:19:47.926Z,5.3
2018-03-29T03:20:56.755Z,5.11
2018-03-29T03:22:05.888Z,5.3
2018-03-29T03:23:14.712Z,5.02
2018-03-29T03:24:23.546Z,5.21
2018-03-29T03:25:32.373Z,5.11
2018-03-29T03:26:41.200Z,5.21
2018-03-29T03:27:50.079Z,5.3
2018-03-29T03:28:58.855Z,4.92
2018-03-29T03:30:07.973Z,5.11
2018-03-29T03:31:17.084Z,4.64
2018-03-29T03:32:25.907Z,4.54
2018-03-29T03:33:34.781Z,5.02
2018-03-29T03:34:43.609Z,5.11
2018-03-29T03:35:52.439Z,5.02
2018-03-29T03:37:01.304Z,4.83
2018-03-29T03:38:10.092Z,5.3
2018-03-29T03:39:19.245Z,5.11
2018-03-29T03:40:28.071Z,5.02
2018-03-29T03:41:36.898Z,4.64
2018-03-29T03:42:45.727Z,4.64
2018-03-29T03:43:54.829Z,4.83
2018-03-29T03:45:04.082Z,4.64
2018-03-29T03:46:12.908Z,4.64
2018-03-29T03:47:21.738Z,4.73
2018-03-29T03:48:30.839Z,4.45
2018-03-29T03:49:39.942Z,4.54
2018-03-29T03:50:49.200Z,4.54
2018-03-29T03:51:58.028Z,4.64
2018-03-29T03:53:06.856Z,4.64
2018-03-29T03:54:15.682Z,4.26
2018-03-29T03:55:24.786Z,4.54
2018-03-29T03:56:34.317Z,4.73
2018-03-29T03:57:43.143Z,4.35
2018-03-29T03:58:51.971Z,4.92
2018-03-29T04:00:00.800Z,4.73
2018-03-29T04:01:09.901Z,4.35
2018-03-29T04:02:18.750Z,4.54
2018-03-29T04:03:27.555Z,4.45
2018-03-29T04:04:36.387Z,4.64
2018-03-29T04:05:45.207Z,4.64
2018-03-29T04:06:54.034Z,4.73
2018-03-29T04:08:03.112Z,4.73
2018-03-29T04:09:11.941Z,4.64
2018-03-29T04:10:21.042Z,4.64
2018-03-29T04:11:29.868Z,4.35
2018-03-29T04:12:38.697Z,4.36
2018-03-29T04:13:47.525Z,4.64
2018-03-29T04:14:56.350Z,4.74
2018-03-29T04:16:05.179Z,4.45
2018-03-29T04:17:14.285Z,4.55
2018-03-29T04:18:23.390Z,4.45
2018-03-29T04:19:32.233Z,4.17
2018-03-29T04:20:41.045Z,4.26
2018-03-29T04:21:50.156Z,4.45
2018-03-29T04:22:58.980Z,4.26
2018-03-29T04:24:07.806Z,4.26
2018-03-29T04:25:16.632Z,4.74
2018-03-29T04:26:25.464Z,4.36
2018-03-29T04:27:34.572Z,4.36
2018-03-29T04:28:43.401Z,4.07
2018-03-29T04:29:52.226Z,4.26
2018-03-29T04:31:01.052Z,4.17
2018-03-29T04:32:09.880Z,4.26
2018-03-29T04:33:18.983Z,3.97
2018-03-29T04:34:27.821Z,4.36
2018-03-29T04:35:36.641Z,4.26
2018-03-29T04:36:45.771Z,3.97
2018-03-29T04:37:54.602Z,4.26
2018-03-29T04:39:03.422Z,4.26
2018-03-29T04:40:12.249Z,4.45
2018-03-29T04:41:21.077Z,4.55
2018-03-29T04:42:30.184Z,4.45
2018-03-29T04:43:39.007Z,4.07
2018-03-29T04:44:48.111Z,3.97
2018-03-29T04:45:56.940Z,4.17
2018-03-29T04:47:06.045Z,4.26
2018-03-29T04:48:15.172Z,4.36
2018-03-29T04:49:24.002Z,4.17
2018-03-29T04:50:32.829Z,3.88
2018-03-29T04:51:41.657Z,3.78
2018-03-29T04:52:50.485Z,3.88
2018-03-29T04:53:59.363Z,3.88
2018-03-29T04:55:08.191Z,3.88
2018-03-29T04:56:17.020Z,3.88
2018-03-29T04:57:25.846Z,3.88
2018-03-29T04:58:34.676Z,3.88
2018-03-29T04:59:43.503Z,3.88
2018-03-29T05:00:52.332Z,4.17
2018-03-29T05:02:01.162Z,3.78
2018-03-29T05:03:09.989Z,3.78
2018-03-29T05:04:18.817Z,3.88
2018-03-29T05:05:27.743Z,4.07
2018-03-29T05:06:36.572Z,4.26
2018-03-29T05:07:45.408Z,4.36
2018-03-29T05:08:54.226Z,4.26
2018-03-29T05:10:03.060Z,4.17
2018-03-29T05:11:12.082Z,3.97
2018-03-29T05:12:20.907Z,3.97
2018-03-29T05:13:30.021Z,3.78
2018-03-29T05:14:38.846Z,3.78
2018-03-29T05:15:47.948Z,4.17
2018-03-29T05:16:56.926Z,4.45
2018-03-29T05:18:05.756Z,4.55
2018-03-29T05:19:14.643Z,5.3
2018-03-29T05:20:23.461Z,4.74
2018-03-29T05:21:32.292Z,4.93
2018-03-29T05:22:41.269Z,6.44
2018-03-29T05:23:50.096Z,6.06
2018-03-29T05:24:59.757Z,6.06
2018-03-29T05:26:08.589Z,6.35
2018-03-29T05:27:17.418Z,5.87
2018-03-29T05:28:26.823Z,6.54
2018-03-29T05:29:35.651Z,6.54
2018-03-29T05:30:44.478Z,6.82
2018-03-29T05:31:53.585Z,7.48
2018-03-29T05:33:02.412Z,7.95
2018-03-29T05:34:11.667Z,7.95
2018-03-29T05:35:20.508Z,7.48
2018-03-29T05:36:29.601Z,7.76
2018-03-29T05:37:38.710Z,7.67
2018-03-29T05:38:47.811Z,7.01
2018-03-29T05:39:56.691Z,6.63
2018-03-29T05:41:05.517Z,6.25
2018-03-29T05:42:14.344Z,5.87
2018-03-29T05:43:23.173Z,5.96
2018-03-29T05:44:31.999Z,6.63
2018-03-29T05:45:41.127Z,7.86
2018-03-29T05:46:49.956Z,7.48
2018-03-29T05:47:58.784Z,7.67
2018-03-29T05:49:07.610Z,7.39
2018-03-29T05:50:16.438Z,7.1
2018-03-29T05:51:25.367Z,6.63
2018-03-29T05:52:34.194Z,5.68
2018-03-29T05:53:43.023Z,5.68
2018-03-29T05:54:51.850Z,5.21
2018-03-29T05:56:00.680Z,5.3
2018-03-29T05:57:09.710Z,6.06
2018-03-29T05:58:18.540Z,5.87
2018-03-29T05:59:27.370Z,6.82
2018-03-29T06:00:36.196Z,7.2
2018-03-29T06:01:45.022Z,6.92
2018-03-29T06:02:53.950Z,7.39
2018-03-29T06:04:02.779Z,7.57
2018-03-29T06:05:11.608Z,7.48
2018-03-29T06:06:20.434Z,8.34
2018-03-29T06:07:29.260Z,8.43
2018-03-29T06:08:38.084Z,7.57
2018-03-29T06:09:46.915Z,7.2
2018-03-29T06:10:55.747Z,7.76
2018-03-29T06:12:04.576Z,7.86
2018-03-29T06:13:13.403Z,8.34
2018-03-29T06:14:22.283Z,8.81
2018-03-29T06:15:31.404Z,8.24
2018-03-29T06:16:40.235Z,8.34
2018-03-29T06:17:49.099Z,7.86
2018-03-29T06:18:58.180Z,7.76
2018-03-29T06:20:07.109Z,8.34
2018-03-29T06:21:15.938Z,9
2018-03-29T06:22:24.765Z,8.62
2018-03-29T06:23:33.594Z,8.62
2018-03-29T06:24:42.421Z,9.56
2018-03-29T06:25:51.300Z,10.71
2018-03-29T06:27:00.128Z,10.04
2018-03-29T06:28:08.958Z,10.71
2018-03-29T06:29:17.784Z,10.61
2018-03-29T06:30:26.613Z,10.33
2018-03-29T06:31:35.491Z,10.61
2018-03-29T06:32:44.328Z,10.23
2018-03-29T06:33:53.150Z,9.75
2018-03-29T06:35:01.979Z,9.85
2018-03-29T06:36:11.083Z,10.23
2018-03-29T06:37:20.112Z,9.94
2018-03-29T06:38:28.941Z,9.85
2018-03-29T06:39:37.773Z,10.23
2018-03-29T06:40:46.609Z,9.85
2018-03-29T06:41:55.715Z,9.94
2018-03-29T06:43:04.695Z,10.71
2018-03-29T06:44:13.525Z,10.71
2018-03-29T06:45:22.362Z,11.28
2018-03-29T06:46:31.190Z,11.46
2018-03-29T06:47:40.018Z,11.27
2018-03-29T06:48:48.847Z,11.55
2018-03-29T06:49:57.678Z,11.27
2018-03-29T06:51:06.506Z,11.75
2018-03-29T06:52:15.331Z,12.32
2018-03-29T06:53:24.442Z,12.22
2018-03-29T06:54:33.669Z,11.94
2018-03-29T06:55:42.496Z,12.41
2018-03-29T06:56:51.326Z,11.56
2018-03-29T06:58:00.156Z,13.17
2018-03-29T06:59:08.985Z,13.65
2018-03-29T07:00:17.962Z,14.03
2018-03-29T07:01:26.793Z,13.75
2018-03-29T07:02:35.621Z,14.22
2018-03-29T07:03:44.451Z,14.31
2018-03-29T07:04:53.283Z,14.12
2018-03-29T07:06:02.640Z,14.12
2018-03-29T07:07:12.025Z,14.69
2018-03-29T07:08:20.853Z,15.45
2018-03-29T07:09:29.684Z,14.59
2018-03-29T07:10:38.523Z,15.26
2018-03-29T07:11:47.454Z,15.83
2018-03-29T07:12:56.283Z,16.3
2018-03-29T07:14:05.111Z,15.83
2018-03-29T07:15:13.942Z,16.68
2018-03-29T07:16:22.768Z,16.3
2018-03-29T07:17:31.848Z,16.68
2018-03-29T07:18:40.687Z,17.16
2018-03-29T07:19:49.514Z,17.35
2018-03-29T07:20:58.346Z,17.91
2018-03-29T07:22:07.175Z,17.72
2018-03-29T07:23:16.252Z,16.68
2018-03-29T07:24:25.358Z,16.58
2018-03-29T07:25:34.188Z,17.54
2018-03-29T07:26:43.301Z,18.01
2018-03-29T07:27:52.127Z,17.72
2018-03-29T07:29:01.011Z,17.91
2018-03-29T07:30:09.844Z,18.2
2018-03-29T07:31:18.671Z,18.58
2018-03-29T07:32:27.497Z,19.53
2018-03-29T07:33:36.329Z,18.67
2018-03-29T07:34:45.309Z,19.44
2018-03-29T07:35:54.138Z,19.06
2018-03-29T07:37:02.969Z,18.11
2018-03-29T07:38:11.798Z,17.73
2018-03-29T07:39:20.629Z,19.25
2018-03-29T07:40:29.511Z,18.3
2018-03-29T07:41:38.345Z,18.96
2018-03-29T07:42:47.175Z,20.86
2018-03-29T07:43:56.001Z,19.54
2018-03-29T07:45:05.118Z,20.77
2018-03-29T07:46:14.326Z,24.37
2018-03-29T07:47:23.157Z,25.79
2018-03-29T07:48:31.992Z,24.18
2018-03-29T07:49:40.820Z,26.08
2018-03-29T07:50:49.649Z,25.04
2018-03-29T07:51:59.157Z,26.84
2018-03-29T07:53:07.988Z,26.93
2018-03-29T07:54:16.819Z,24.37
2018-03-29T07:55:25.656Z,24.56
2018-03-29T07:56:34.485Z,23.8
2018-03-29T07:57:43.616Z,26.36
2018-03-29T07:58:52.448Z,26.08
2018-03-29T08:00:01.288Z,26.27
2018-03-29T08:01:10.404Z,31.29
2018-03-29T08:02:19.234Z,31.1
2018-03-29T08:03:28.363Z,31.87
2018-03-29T08:04:37.194Z,30.54
2018-03-29T08:05:46.023Z,30.06
2018-03-29T08:06:54.853Z,33.29
2018-03-29T08:08:03.962Z,31.77
2018-03-29T08:09:12.841Z,31.68
2018-03-29T08:10:21.677Z,31.79
2018-03-29T08:11:30.507Z,33.78
2018-03-29T08:12:39.902Z,34.8
2018-03-29T08:13:48.765Z,35.3
2018-03-29T08:14:57.562Z,35.18
2018-03-29T08:16:06.392Z,35.39
2018-03-29T08:17:15.225Z,34.82
2018-03-29T08:18:24.054Z,35.68
2018-03-29T08:19:32.884Z,36.24
2018-03-29T08:20:41.766Z,38.62
2018-03-29T08:21:50.872Z,38.53
2018-03-29T08:22:59.701Z,38.62
2018-03-29T08:24:08.806Z,38.43
2018-03-29T08:25:17.923Z,38.33
2018-03-29T08:26:26.754Z,37.76
2018-03-29T08:27:35.585Z,40.8
2018-03-29T08:28:44.415Z,39.76
2018-03-29T08:29:53.245Z,40.8
2018-03-29T08:31:02.076Z,40.52
2018-03-29T08:32:11.210Z,41.27
2018-03-29T08:33:20.036Z,40.99
2018-03-29T08:34:28.869Z,38.53
2018-03-29T08:35:37.697Z,39.57
2018-03-29T08:36:46.805Z,39.47
2018-03-29T08:37:55.709Z,39.57
2018-03-29T08:39:04.522Z,41.46
2018-03-29T08:40:13.352Z,40.14
2018-03-29T08:41:22.181Z,42.13
2018-03-29T08:42:31.009Z,42.7
2018-03-29T08:43:39.987Z,42.13
2018-03-29T08:44:48.818Z,42.98
2018-03-29T08:45:57.648Z,43.46
2018-03-29T08:47:06.479Z,43.27
2018-03-29T08:48:15.310Z,46.11
2018-03-29T08:49:24.191Z,45.36
2018-03-29T08:50:33.301Z,44.4
2018-03-29T08:51:42.702Z,45.45
2018-03-29T08:52:51.803Z,45.54
2018-03-29T08:54:00.638Z,44.79
2018-03-29T08:55:09.465Z,44.5
2018-03-29T08:56:18.298Z,44.02
2018-03-29T08:57:27.137Z,48.68
2018-03-29T08:58:35.970Z,48.96
2018-03-29T08:59:44.803Z,44.6
2018-03-29T09:00:54.011Z,50.2
2018-03-29T09:02:02.845Z,51.72
2018-03-29T09:03:11.676Z,52.56
2018-03-29T09:04:20.509Z,51.72
2018-03-29T09:05:29.343Z,50.95
2018-03-29T09:06:38.276Z,53.26
2018-03-29T09:07:47.108Z,53.7
2018-03-29T09:08:55.942Z,52.09
2018-03-29T09:10:04.776Z,52.28
2018-03-29T09:11:13.606Z,47.18
2018-03-29T09:12:22.763Z,48.32
2018-03-29T09:13:31.594Z,48.96
2018-03-29T09:14:40.423Z,46.59
2018-03-29T09:15:49.826Z,46.3
2018-03-29T09:16:58.656Z,43.93
2018-03-29T09:18:07.637Z,43.27
2018-03-29T09:19:16.517Z,41.56
2018-03-29T09:20:25.349Z,41.25
2018-03-29T09:21:34.181Z,35.94
2018-03-29T09:22:43.010Z,36.51
2018-03-29T09:23:51.990Z,35.66
2018-03-29T09:25:00.821Z,34.05
2018-03-29T09:26:09.653Z,31.96
2018-03-29T09:27:18.523Z,29.02
2018-03-29T09:28:27.312Z,28.83
2018-03-29T09:29:36.395Z,27.88
2018-03-29T09:30:45.777Z,28.07
2018-03-29T09:31:54.890Z,23.8
2018-03-29T09:33:03.721Z,24.75
2018-03-29T09:34:12.553Z,24.07
2018-03-29T09:35:21.531Z,22.66
2018-03-29T09:36:30.362Z,22.38
2018-03-29T09:37:39.190Z,20.96
2018-03-29T09:38:48.022Z,21.05
2018-03-29T09:39:57.134Z,20.96
2018-03-29T09:41:06.112Z,20.67
2018-03-29T09:42:14.940Z,20.96
2018-03-29T09:43:23.768Z,20.09
2018-03-29T09:44:32.598Z,19.73
2018-03-29T09:45:41.980Z,19.82
2018-03-29T09:46:51.207Z,19.44
2018-03-29T09:48:00.037Z,19.25
2018-03-29T09:49:08.866Z,18.77
2018-03-29T09:50:17.976Z,18.4
2018-03-29T09:51:26.805Z,17.83
2018-03-29T09:52:35.786Z,17.83
2018-03-29T09:53:44.616Z,18.02
2018-03-29T09:54:53.446Z,18.4
2018-03-29T09:56:02.278Z,18.21
2018-03-29T09:57:11.107Z,18.21
2018-03-29T09:58:20.038Z,17.07
2018-03-29T09:59:28.867Z,17.83
2018-03-29T10:00:37.974Z,18.11
2018-03-29T10:01:46.809Z,17.35
2018-03-29T10:02:55.645Z,17.16
2018-03-29T10:04:04.476Z,18.02
2018-03-29T10:05:13.306Z,19.17
2018-03-29T10:06:22.137Z,22.77
2018-03-29T10:07:30.970Z,19.54
2018-03-29T10:08:39.803Z,20.21
2018-03-29T10:09:48.736Z,20.59
2018-03-29T10:10:57.850Z,21.73
2018-03-29T10:12:06.682Z,21.35
2018-03-29T10:13:15.513Z,20.97
2018-03-29T10:14:24.344Z,19.26
2018-03-29T10:15:33.327Z,19.83
2018-03-29T10:16:42.162Z,22.01
2018-03-29T10:17:50.994Z,24.49
2018-03-29T10:18:59.826Z,24.19
2018-03-29T10:20:08.663Z,24.38
2018-03-29T10:21:17.494Z,23.54
2018-03-29T10:22:26.606Z,24.58
2018-03-29T10:23:35.439Z,28
2018-03-29T10:24:44.274Z,28.29
2018-03-29T10:25:53.386Z,31.13
2018-03-29T10:27:02.464Z,31.61
2018-03-29T10:28:11.297Z,31.9
2018-03-29T10:29:20.695Z,42.72
2018-03-29T10:30:29.528Z,44.34
2018-03-29T10:31:38.644Z,45
2018-03-29T10:32:47.528Z,46.61
2018-03-29T10:33:56.648Z,43.01
2018-03-29T10:35:05.473Z,41.2
2018-03-29T10:36:14.583Z,49.74
2018-03-29T10:37:23.415Z,44.43
2018-03-29T10:38:32.349Z,39.68
2018-03-29T10:39:41.181Z,36.26
2018-03-29T10:40:50.021Z,31.33
2018-03-29T10:41:58.853Z,29.24
2018-03-29T10:43:07.685Z,27.04
2018-03-29T10:44:16.618Z,24.67
2018-03-29T10:45:25.454Z,19.34
2018-03-29T10:46:34.288Z,16.7
2018-03-29T10:47:43.114Z,15.26
2018-03-29T10:48:51.946Z,15.37
2018-03-29T10:50:00.826Z,14.41
2018-03-29T10:51:09.658Z,12.99
2018-03-29T10:52:18.494Z,14.04
2018-03-29T10:53:27.318Z,13.38
2018-03-29T10:54:36.149Z,12.24
2018-03-29T10:55:44.979Z,13.09
2018-03-29T10:56:53.857Z,12.05
2018-03-29T10:58:02.678Z,12.05
2018-03-29T10:59:11.836Z,12.24
2018-03-29T11:00:20.667Z,12.05
2018-03-29T11:01:29.597Z,12.24
2018-03-29T11:02:38.429Z,15.18
2018-03-29T11:03:47.540Z,15.66
2018-03-29T11:04:56.370Z,17.46
2018-03-29T11:06:05.201Z,17.46
2018-03-29T11:07:14.031Z,18.41
2018-03-29T11:08:22.861Z,17.65
2018-03-29T11:09:31.694Z,17.46
2018-03-29T11:10:40.526Z,17.83
2018-03-29T11:11:49.356Z,17.93
2018-03-29T11:12:58.199Z,16.41
2018-03-29T11:14:07.016Z,18.6
2018-03-29T11:15:15.849Z,18.79
2018-03-29T11:16:24.684Z,22.21
2018-03-29T11:17:33.515Z,20.41
2018-03-29T11:18:42.547Z,21.83
2018-03-29T11:19:51.381Z,27.91
2018-03-29T11:21:00.212Z,27.06
2018-03-29T11:22:09.046Z,24.96
2018-03-29T11:23:17.893Z,27.53
2018-03-29T11:24:27.150Z,28
2018-03-29T11:25:36.256Z,32.18
2018-03-29T11:26:45.087Z,34.84
2018-03-29T11:27:53.920Z,31.52
2018-03-29T11:29:03.025Z,33.61
2018-03-29T11:30:11.856Z,34.08
2018-03-29T11:31:20.685Z,33.23
2018-03-29T11:32:29.518Z,30.19
2018-03-29T11:33:38.357Z,29.14
2018-03-29T11:34:47.193Z,25.82
2018-03-29T11:35:56.276Z,29.52
2018-03-29T11:37:05.110Z,33.23
2018-03-29T11:38:13.940Z,39.97
2018-03-29T11:39:22.774Z,36.55
2018-03-29T11:40:31.609Z,42.82
2018-03-29T11:41:40.540Z,35.03
2018-03-29T11:42:49.721Z,39.21
2018-03-29T11:43:58.555Z,50.51
2018-03-29T11:45:07.386Z,57.81
2018-03-29T11:46:16.220Z,57.15
2018-03-29T11:47:25.204Z,52.78
2018-03-29T11:48:34.043Z,41.39
2018-03-29T11:49:42.873Z,49.01
2018-03-29T11:50:51.983Z,51.36
2018-03-29T11:52:00.813Z,56.1
2018-03-29T11:53:10.046Z,48.13
2018-03-29T11:54:18.879Z,45.19
2018-03-29T11:55:27.708Z,46.7
2018-03-29T11:56:36.539Z,45.66
2018-03-29T11:57:45.372Z,46.51
2018-03-29T11:58:54.303Z,43.01
2018-03-29T12:00:03.134Z,46.23
2018-03-29T12:01:11.967Z,40.92
2018-03-29T12:02:20.801Z,42.72
2018-03-29T12:03:29.633Z,39.21
2018-03-29T12:04:38.714Z,33.23
2018-03-29T12:05:47.554Z,32.65
2018-03-29T12:06:56.378Z,36.26
2018-03-29T12:08:05.212Z,30.76
2018-03-29T12:09:14.331Z,36.26
2018-03-29T12:10:23.311Z,34.27
2018-03-29T12:11:32.144Z,30.85
2018-03-29T12:12:40.974Z,38.07
2018-03-29T12:13:49.813Z,33.04
2018-03-29T12:14:58.917Z,30.66
2018-03-29T12:16:08.404Z,31.23
2018-03-29T12:17:17.235Z,31.8
2018-03-29T12:18:26.069Z,31.71
2018-03-29T12:19:35.477Z,32.94
2018-03-29T12:20:44.588Z,33.04
2018-03-29T12:21:53.569Z,36.83
2018-03-29T12:23:02.401Z,30.38
2018-03-29T12:24:11.234Z,35.05
2018-03-29T12:25:20.066Z,35.42
2018-03-29T12:26:29.177Z,34.19
2018-03-29T12:27:38.011Z,34.38
2018-03-29T12:28:46.848Z,42.46
2018-03-29T12:29:55.682Z,30.77
2018-03-29T12:31:04.514Z,30.96
2018-03-29T12:32:13.350Z,28.02
2018-03-29T12:33:22.585Z,38.58
2018-03-29T12:34:31.421Z,38.46
2018-03-29T12:35:40.531Z,37.71
2018-03-29T12:36:49.365Z,40.1
2018-03-29T12:37:58.199Z,36.96
2018-03-29T12:39:07.145Z,28.6
2018-03-29T12:40:15.977Z,33.07
2018-03-29T12:41:24.811Z,48.18
2018-03-29T12:42:33.646Z,36.19
2018-03-29T12:43:42.480Z,35.71
2018-03-29T12:44:51.418Z,52.33
2018-03-29T12:46:00.496Z,53.28
2018-03-29T12:47:09.328Z,44.73
2018-03-29T12:48:18.168Z,40.46
2018-03-29T12:49:27.291Z,42.27
2018-03-29T12:50:36.326Z,45.78
2018-03-29T12:51:45.161Z,49.96
2018-03-29T12:52:54.270Z,50.72
2018-03-29T12:54:03.103Z,39.79
2018-03-29T12:55:11.937Z,45.21
2018-03-29T12:56:21.025Z,44.83
2018-03-29T12:57:30.417Z,46.64
2018-03-29T12:58:39.253Z,51.76
2018-03-29T12:59:48.086Z,45.78
2018-03-29T13:00:56.922Z,51.48
2018-03-29T13:02:05.905Z,50.72
2018-03-29T13:03:14.734Z,44.26
2018-03-29T13:04:23.568Z,44.93
2018-03-29T13:05:32.404Z,40.08
2018-03-29T13:06:41.237Z,42.36
2018-03-29T13:07:50.374Z,47.13
2018-03-29T13:08:59.204Z,43.62
2018-03-29T13:10:08.036Z,45.61
2018-03-29T13:11:16.870Z,58.35
2018-03-29T13:12:25.711Z,43.24
2018-03-29T13:13:34.873Z,53.69
2018-03-29T13:14:43.983Z,56.35
2018-03-29T13:15:52.819Z,58.92
2018-03-29T13:17:01.655Z,45.61
2018-03-29T13:18:10.491Z,48.85
2018-03-29T13:19:19.379Z,47.8
2018-03-29T13:20:28.218Z,61.52
2018-03-29T13:21:37.331Z,66.74
2018-03-29T13:22:46.167Z,67.32
2018-03-29T13:23:55.004Z,61.23
2018-03-29T13:25:03.890Z,65.22
2018-03-29T13:26:12.724Z,58.47
2018-03-29T13:27:21.839Z,61.71
2018-03-29T13:28:30.717Z,63.6
2018-03-29T13:29:39.513Z,70.93
2018-03-29T13:30:48.417Z,62.27
2018-03-29T13:31:57.241Z,56.76
2018-03-29T13:33:06.074Z,60.38
2018-03-29T13:34:14.910Z,72.16
2018-03-29T13:35:23.749Z,72.45
2018-03-29T13:36:32.889Z,71.02
2018-03-29T13:37:41.671Z,64.56
2018-03-29T13:38:50.511Z,71.06
2018-03-29T13:39:59.350Z,74.2
2018-03-29T13:41:08.480Z,75.05
2018-03-29T13:42:17.369Z,73.34
2018-03-29T13:43:26.269Z,70.2
2018-03-29T13:44:35.044Z,71.15
2018-03-29T13:45:43.889Z,63.48
2018-03-29T13:46:53.003Z,63.86
2018-03-29T13:48:01.845Z,67.76
2018-03-29T13:49:10.959Z,76.71
2018-03-29T13:50:19.799Z,75.85
2018-03-29T13:51:28.638Z,73.28
2018-03-29T13:52:37.479Z,78.46
2018-03-29T13:53:46.617Z,81.89
2018-03-29T13:54:55.457Z,85.89
2018-03-29T13:56:04.299Z,79.38
2018-03-29T13:57:13.416Z,82.18
2018-03-29T13:58:22.255Z,73.41
2018-03-29T13:59:31.095Z,80.33
2018-03-29T14:00:39.933Z,79.13
2018-03-29T14:01:49.051Z,73.66
2018-03-29T14:02:57.895Z,83.09
2018-03-29T14:04:07.009Z,79.28
2018-03-29T14:05:15.947Z,77.13
2018-03-29T14:06:24.784Z,77.13
2018-03-29T14:07:33.623Z,69.32
2018-03-29T14:08:42.461Z,75.7
2018-03-29T14:09:51.301Z,81.32
2018-03-29T14:11:00.244Z,80.36
2018-03-29T14:12:09.359Z,79.99
2018-03-29T14:13:18.248Z,80.22
2018-03-29T14:14:27.088Z,81.55
2018-03-29T14:15:35.927Z,87.07
2018-03-29T14:16:44.973Z,83.74
2018-03-29T14:17:53.812Z,83.69
2018-03-29T14:19:02.655Z,82.26
2018-03-29T14:20:11.498Z,84.74
2018-03-29T14:21:20.341Z,84.83
2018-03-29T14:22:29.184Z,81.49
2018-03-29T14:23:38.041Z,77.69
2018-03-29T14:24:46.867Z,80.79
2018-03-29T14:25:55.708Z,86.88
2018-03-29T14:27:04.550Z,84.98
2018-03-29T14:28:13.540Z,75.45
2018-03-29T14:29:22.381Z,88.03
2018-03-29T14:30:31.219Z,80.31
2018-03-29T14:31:40.059Z,81.23
2018-03-29T14:32:49.179Z,87.98
2018-03-29T14:33:58.111Z,79.89
2018-03-29T14:35:07.234Z,80.55
2018-03-29T14:36:16.074Z,85.89
2018-03-29T14:37:24.912Z,76.81
2018-03-29T14:38:33.749Z,78.04
2018-03-29T14:39:42.684Z,84.89
2018-03-29T14:40:51.522Z,83.47
2018-03-29T14:42:00.355Z,74.99
2018-03-29T14:43:09.479Z,82.32
2018-03-29T14:44:18.605Z,82.14
2018-03-29T14:45:27.539Z,82.99
2018-03-29T14:46:36.377Z,78.42
2018-03-29T14:47:45.212Z,80.04
2018-03-29T14:48:54.049Z,82.9
2018-03-29T14:50:02.882Z,80.38
2018-03-29T14:51:11.867Z,79.77
2018-03-29T14:52:20.702Z,75.4
2018-03-29T14:53:29.537Z,77.73
2018-03-29T14:54:38.369Z,75.07
2018-03-29T14:55:47.204Z,66.9
2018-03-29T14:56:56.469Z,65.63
2018-03-29T14:58:05.303Z,64.49
2018-03-29T14:59:14.140Z,54.21